sensor_id;sensor_type;location;lat;lon;timestamp;P1;durP1;ratioP1;P2;durP2;ratioP2
27013;SDS011;14556;52.222;4.510;2022-10-31T00:01:12;2.90;;;1.40;;
27013;SDS011;14556;52.222;4.510;2022-10-31T00:03:40;1.80;;;1.13;;
27013;SDS011;14556;52.222;4.510;2022-10-31T00:06:06;2.73;;;1.10;;
27013;SDS011;14556;52.222;4.510;2022-10-31T00:08:33;1.40;;;1.10;;
27013;SDS011;14556;52.222;4.510;2022-10-31T00:10:59;3.10;;;1.30;;
27013;SDS011;14556;52.222;4.510;2022-10-31T00:13:26;4.40;;;1.00;;
27013;SDS011;14556;52.222;4.510;2022-10-31T00:15:52;2.17;;;1.20;;
27013;SDS011;14556;52.222;4.510;2022-10-31T00:18:19;3.27;;;1.10;;
27013;SDS011;14556;52.222;4.510;2022-10-31T00:20:45;3.03;;;1.37;;
27013;SDS011;14556;52.222;4.510;2022-10-31T00:23:12;2.80;;;1.30;;
27013;SDS011;14556;52.222;4.510;2022-10-31T00:25:39;3.90;;;1.43;;
27013;SDS011;14556;52.222;4.510;2022-10-31T00:28:06;3.17;;;1.37;;
27013;SDS011;14556;52.222;4.510;2022-10-31T00:30:35;1.97;;;1.20;;
27013;SDS011;14556;52.222;4.510;2022-10-31T00:33:03;2.33;;;1.00;;
27013;SDS011;14556;52.222;4.510;2022-10-31T00:35:30;2.23;;;1.50;;
27013;SDS011;14556;52.222;4.510;2022-10-31T00:37:56;5.20;;;1.57;;
27013;SDS011;14556;52.222;4.510;2022-10-31T00:40:23;1.83;;;1.23;;
27013;SDS011;14556;52.222;4.510;2022-10-31T00:42:49;5.17;;;1.13;;
27013;SDS011;14556;52.222;4.510;2022-10-31T00:45:16;1.40;;;1.07;;
27013;SDS011;14556;52.222;4.510;2022-10-31T00:47:43;2.30;;;1.20;;
27013;SDS011;14556;52.222;4.510;2022-10-31T00:50:09;1.40;;;1.00;;
27013;SDS011;14556;52.222;4.510;2022-10-31T00:52:36;1.27;;;1.00;;
27013;SDS011;14556;52.222;4.510;2022-10-31T00:55:02;1.33;;;1.00;;
27013;SDS011;14556;52.222;4.510;2022-10-31T00:57:28;1.97;;;1.27;;
27013;SDS011;14556;52.222;4.510;2022-10-31T00:59:55;2.40;;;1.73;;
27013;SDS011;14556;52.222;4.510;2022-10-31T01:02:21;1.60;;;1.10;;
27013;SDS011;14556;52.222;4.510;2022-10-31T01:04:48;2.60;;;1.50;;
27013;SDS011;14556;52.222;4.510;2022-10-31T01:07:14;2.70;;;1.50;;
27013;SDS011;14556;52.222;4.510;2022-10-31T01:09:42;3.00;;;1.33;;
27013;SDS011;14556;52.222;4.510;2022-10-31T01:12:08;2.50;;;1.33;;
27013;SDS011;14556;52.222;4.510;2022-10-31T01:14:35;4.20;;;1.60;;
27013;SDS011;14556;52.222;4.510;2022-10-31T01:17:01;3.37;;;1.20;;
27013;SDS011;14556;52.222;4.510;2022-10-31T01:19:28;1.67;;;1.10;;
27013;SDS011;14556;52.222;4.510;2022-10-31T01:21:54;3.20;;;1.30;;
27013;SDS011;14556;52.222;4.510;2022-10-31T01:24:21;1.80;;;1.27;;
27013;SDS011;14556;52.222;4.510;2022-10-31T01:26:48;1.90;;;1.17;;
27013;SDS011;14556;52.222;4.510;2022-10-31T01:29:14;2.07;;;1.47;;
27013;SDS011;14556;52.222;4.510;2022-10-31T01:31:40;1.97;;;1.43;;
27013;SDS011;14556;52.222;4.510;2022-10-31T01:34:07;2.27;;;1.37;;
27013;SDS011;14556;52.222;4.510;2022-10-31T01:36:36;3.97;;;1.40;;
27013;SDS011;14556;52.222;4.510;2022-10-31T01:39:04;1.73;;;1.20;;
27013;SDS011;14556;52.222;4.510;2022-10-31T01:41:34;2.27;;;1.50;;
27013;SDS011;14556;52.222;4.510;2022-10-31T01:44:47;3.17;;;1.33;;
27013;SDS011;14556;52.222;4.510;2022-10-31T01:47:11;2.60;;;1.60;;
27013;SDS011;14556;52.222;4.510;2022-10-31T01:49:45;2.77;;;1.60;;
27013;SDS011;14556;52.222;4.510;2022-10-31T01:52:30;5.50;;;1.50;;
27013;SDS011;14556;52.222;4.510;2022-10-31T01:55:44;2.90;;;2.07;;
27013;SDS011;14556;52.222;4.510;2022-10-31T01:58:11;6.93;;;2.03;;
27013;SDS011;14556;52.222;4.510;2022-10-31T02:00:39;2.53;;;1.80;;
27013;SDS011;14556;52.222;4.510;2022-10-31T02:03:09;3.43;;;2.00;;
27013;SDS011;14556;52.222;4.510;2022-10-31T02:05:36;2.73;;;1.87;;
27013;SDS011;14556;52.222;4.510;2022-10-31T02:08:14;3.37;;;1.30;;
27013;SDS011;14556;52.222;4.510;2022-10-31T02:10:45;3.50;;;1.60;;
27013;SDS011;14556;52.222;4.510;2022-10-31T02:13:12;4.70;;;2.43;;
27013;SDS011;14556;52.222;4.510;2022-10-31T02:15:39;4.47;;;2.43;;
27013;SDS011;14556;52.222;4.510;2022-10-31T02:18:07;4.20;;;2.87;;
27013;SDS011;14556;52.222;4.510;2022-10-31T02:20:40;8.23;;;2.60;;
27013;SDS011;14556;52.222;4.510;2022-10-31T02:31:45;5.63;;;2.87;;
27013;SDS011;14556;52.222;4.510;2022-10-31T02:34:34;7.10;;;2.90;;
27013;SDS011;14556;52.222;4.510;2022-10-31T02:37:12;3.00;;;2.60;;
27013;SDS011;14556;52.222;4.510;2022-10-31T02:42:50;3.63;;;2.63;;
27013;SDS011;14556;52.222;4.510;2022-10-31T02:45:33;4.37;;;2.60;;
27013;SDS011;14556;52.222;4.510;2022-10-31T02:48:08;4.43;;;2.50;;
27013;SDS011;14556;52.222;4.510;2022-10-31T02:50:40;4.37;;;2.80;;
27013;SDS011;14556;52.222;4.510;2022-10-31T02:53:13;4.23;;;2.67;;
27013;SDS011;14556;52.222;4.510;2022-10-31T02:55:51;3.50;;;2.57;;
27013;SDS011;14556;52.222;4.510;2022-10-31T02:58:24;5.03;;;2.97;;
27013;SDS011;14556;52.222;4.510;2022-10-31T03:01:04;3.57;;;2.70;;
27013;SDS011;14556;52.222;4.510;2022-10-31T03:06:13;3.80;;;2.37;;
27013;SDS011;14556;52.222;4.510;2022-10-31T03:08:50;4.70;;;2.90;;
27013;SDS011;14556;52.222;4.510;2022-10-31T03:11:28;4.63;;;2.90;;
27013;SDS011;14556;52.222;4.510;2022-10-31T03:14:17;6.03;;;3.13;;
27013;SDS011;14556;52.222;4.510;2022-10-31T03:17:02;7.33;;;2.97;;
27013;SDS011;14556;52.222;4.510;2022-10-31T03:19:38;4.00;;;2.60;;
27013;SDS011;14556;52.222;4.510;2022-10-31T03:22:25;6.70;;;3.27;;
27013;SDS011;14556;52.222;4.510;2022-10-31T03:24:54;4.40;;;3.47;;
27013;SDS011;14556;52.222;4.510;2022-10-31T03:27:24;5.53;;;3.67;;
27013;SDS011;14556;52.222;4.510;2022-10-31T03:29:54;4.60;;;3.33;;
27013;SDS011;14556;52.222;4.510;2022-10-31T03:32:24;6.23;;;4.37;;
27013;SDS011;14556;52.222;4.510;2022-10-31T03:34:58;7.57;;;3.70;;
27013;SDS011;14556;52.222;4.510;2022-10-31T03:37:27;6.90;;;4.30;;
27013;SDS011;14556;52.222;4.510;2022-10-31T03:39:56;5.50;;;4.10;;
27013;SDS011;14556;52.222;4.510;2022-10-31T03:42:27;4.63;;;3.80;;
27013;SDS011;14556;52.222;4.510;2022-10-31T03:45:01;4.87;;;3.80;;
27013;SDS011;14556;52.222;4.510;2022-10-31T03:47:33;5.43;;;4.07;;
27013;SDS011;14556;52.222;4.510;2022-10-31T03:50:02;4.27;;;3.70;;
27013;SDS011;14556;52.222;4.510;2022-10-31T03:52:33;5.03;;;3.97;;
27013;SDS011;14556;52.222;4.510;2022-10-31T03:55:09;7.30;;;4.37;;
27013;SDS011;14556;52.222;4.510;2022-10-31T03:57:46;5.73;;;4.30;;
27013;SDS011;14556;52.222;4.510;2022-10-31T04:00:18;7.03;;;4.03;;
27013;SDS011;14556;52.222;4.510;2022-10-31T04:03:29;6.03;;;4.07;;
27013;SDS011;14556;52.222;4.510;2022-10-31T04:05:37;7.07;;;4.23;;
27013;SDS011;14556;52.222;4.510;2022-10-31T04:08:07;5.60;;;4.13;;
27013;SDS011;14556;52.222;4.510;2022-10-31T04:10:37;4.50;;;3.83;;
27013;SDS011;14556;52.222;4.510;2022-10-31T04:13:07;4.23;;;3.70;;
27013;SDS011;14556;52.222;4.510;2022-10-31T04:15:37;4.13;;;3.30;;
27013;SDS011;14556;52.222;4.510;2022-10-31T04:18:05;7.97;;;3.53;;
27013;SDS011;14556;52.222;4.510;2022-10-31T04:20:35;5.23;;;3.60;;
27013;SDS011;14556;52.222;4.510;2022-10-31T04:23:04;8.43;;;3.70;;
27013;SDS011;14556;52.222;4.510;2022-10-31T04:25:38;4.93;;;3.43;;
27013;SDS011;14556;52.222;4.510;2022-10-31T04:28:05;7.57;;;3.47;;
27013;SDS011;14556;52.222;4.510;2022-10-31T04:30:31;4.57;;;3.63;;
27013;SDS011;14556;52.222;4.510;2022-10-31T04:32:58;5.23;;;3.60;;
27013;SDS011;14556;52.222;4.510;2022-10-31T04:35:24;6.00;;;3.33;;
27013;SDS011;14556;52.222;4.510;2022-10-31T04:37:51;7.03;;;3.53;;
27013;SDS011;14556;52.222;4.510;2022-10-31T04:40:17;8.27;;;3.13;;
27013;SDS011;14556;52.222;4.510;2022-10-31T04:42:44;5.20;;;3.47;;
27013;SDS011;14556;52.222;4.510;2022-10-31T04:45:10;5.13;;;3.33;;
27013;SDS011;14556;52.222;4.510;2022-10-31T04:47:43;6.57;;;3.53;;
27013;SDS011;14556;52.222;4.510;2022-10-31T04:50:09;4.47;;;3.37;;
27013;SDS011;14556;52.222;4.510;2022-10-31T04:52:40;4.10;;;3.30;;
27013;SDS011;14556;52.222;4.510;2022-10-31T04:55:07;5.83;;;4.13;;
27013;SDS011;14556;52.222;4.510;2022-10-31T04:57:44;5.93;;;3.67;;
27013;SDS011;14556;52.222;4.510;2022-10-31T05:00:15;7.20;;;4.70;;
27013;SDS011;14556;52.222;4.510;2022-10-31T05:02:44;7.13;;;5.10;;
27013;SDS011;14556;52.222;4.510;2022-10-31T05:05:12;8.03;;;5.23;;
27013;SDS011;14556;52.222;4.510;2022-10-31T05:07:41;7.33;;;5.57;;
27013;SDS011;14556;52.222;4.510;2022-10-31T05:10:12;7.50;;;5.70;;
27013;SDS011;14556;52.222;4.510;2022-10-31T05:12:47;11.97;;;5.87;;
27013;SDS011;14556;52.222;4.510;2022-10-31T05:15:15;13.00;;;6.50;;
27013;SDS011;14556;52.222;4.510;2022-10-31T05:17:42;11.97;;;6.83;;
27013;SDS011;14556;52.222;4.510;2022-10-31T05:20:13;9.93;;;6.13;;
27013;SDS011;14556;52.222;4.510;2022-10-31T05:22:43;11.00;;;7.13;;
27013;SDS011;14556;52.222;4.510;2022-10-31T05:25:14;12.50;;;7.37;;
27013;SDS011;14556;52.222;4.510;2022-10-31T05:27:43;12.13;;;8.47;;
27013;SDS011;14556;52.222;4.510;2022-10-31T05:30:14;13.40;;;8.50;;
27013;SDS011;14556;52.222;4.510;2022-10-31T05:32:43;10.43;;;7.20;;
27013;SDS011;14556;52.222;4.510;2022-10-31T05:35:12;12.87;;;8.93;;
27013;SDS011;14556;52.222;4.510;2022-10-31T05:37:41;16.17;;;9.13;;
27013;SDS011;14556;52.222;4.510;2022-10-31T05:40:08;12.57;;;8.17;;
27013;SDS011;14556;52.222;4.510;2022-10-31T05:42:37;14.30;;;7.80;;
27013;SDS011;14556;52.222;4.510;2022-10-31T05:45:05;13.03;;;8.23;;
27013;SDS011;14556;52.222;4.510;2022-10-31T05:47:33;13.20;;;8.13;;
27013;SDS011;14556;52.222;4.510;2022-10-31T05:49:59;12.30;;;7.40;;
27013;SDS011;14556;52.222;4.510;2022-10-31T05:52:26;13.83;;;8.23;;
27013;SDS011;14556;52.222;4.510;2022-10-31T05:54:52;12.27;;;8.00;;
27013;SDS011;14556;52.222;4.510;2022-10-31T05:57:18;12.70;;;7.97;;
27013;SDS011;14556;52.222;4.510;2022-10-31T05:59:45;13.73;;;9.10;;
27013;SDS011;14556;52.222;4.510;2022-10-31T06:02:17;17.63;;;9.20;;
27013;SDS011;14556;52.222;4.510;2022-10-31T06:04:43;15.53;;;8.60;;
27013;SDS011;14556;52.222;4.510;2022-10-31T06:07:10;16.37;;;8.67;;
27013;SDS011;14556;52.222;4.510;2022-10-31T06:09:36;13.10;;;8.17;;
27013;SDS011;14556;52.222;4.510;2022-10-31T06:12:03;14.20;;;8.83;;
27013;SDS011;14556;52.222;4.510;2022-10-31T06:14:29;14.00;;;8.70;;
27013;SDS011;14556;52.222;4.510;2022-10-31T06:16:55;15.60;;;8.50;;
27013;SDS011;14556;52.222;4.510;2022-10-31T06:19:22;15.57;;;8.20;;
27013;SDS011;14556;52.222;4.510;2022-10-31T06:21:48;11.47;;;8.23;;
27013;SDS011;14556;52.222;4.510;2022-10-31T06:24:15;12.47;;;8.00;;
27013;SDS011;14556;52.222;4.510;2022-10-31T06:26:41;13.90;;;8.23;;
27013;SDS011;14556;52.222;4.510;2022-10-31T06:29:07;11.43;;;8.57;;
27013;SDS011;14556;52.222;4.510;2022-10-31T06:31:34;16.07;;;8.77;;
27013;SDS011;14556;52.222;4.510;2022-10-31T06:34:00;14.40;;;7.77;;
27013;SDS011;14556;52.222;4.510;2022-10-31T06:36:27;16.27;;;8.07;;
27013;SDS011;14556;52.222;4.510;2022-10-31T06:38:53;22.27;;;8.40;;
27013;SDS011;14556;52.222;4.510;2022-10-31T06:41:20;10.80;;;7.30;;
27013;SDS011;14556;52.222;4.510;2022-10-31T06:43:46;11.10;;;7.27;;
27013;SDS011;14556;52.222;4.510;2022-10-31T06:46:13;11.50;;;7.73;;
27013;SDS011;14556;52.222;4.510;2022-10-31T06:48:40;11.03;;;7.83;;
27013;SDS011;14556;52.222;4.510;2022-10-31T06:51:07;12.13;;;7.67;;
27013;SDS011;14556;52.222;4.510;2022-10-31T06:53:34;11.03;;;7.43;;
27013;SDS011;14556;52.222;4.510;2022-10-31T06:56:01;12.20;;;7.80;;
27013;SDS011;14556;52.222;4.510;2022-10-31T06:58:27;12.60;;;6.97;;
27013;SDS011;14556;52.222;4.510;2022-10-31T07:00:53;12.43;;;8.27;;
27013;SDS011;14556;52.222;4.510;2022-10-31T07:03:20;12.80;;;8.13;;
27013;SDS011;14556;52.222;4.510;2022-10-31T07:05:46;17.13;;;8.60;;
27013;SDS011;14556;52.222;4.510;2022-10-31T07:08:13;11.07;;;7.40;;
27013;SDS011;14556;52.222;4.510;2022-10-31T07:10:41;11.53;;;8.03;;
27013;SDS011;14556;52.222;4.510;2022-10-31T07:13:12;15.20;;;8.23;;
27013;SDS011;14556;52.222;4.510;2022-10-31T07:15:41;13.43;;;8.43;;
27013;SDS011;14556;52.222;4.510;2022-10-31T07:18:08;12.20;;;8.17;;
27013;SDS011;14556;52.222;4.510;2022-10-31T07:20:37;12.10;;;8.80;;
27013;SDS011;14556;52.222;4.510;2022-10-31T07:23:03;14.83;;;9.10;;
27013;SDS011;14556;52.222;4.510;2022-10-31T07:25:31;15.90;;;8.63;;
27013;SDS011;14556;52.222;4.510;2022-10-31T07:27:58;14.20;;;8.93;;
27013;SDS011;14556;52.222;4.510;2022-10-31T07:30:25;14.13;;;9.37;;
27013;SDS011;14556;52.222;4.510;2022-10-31T07:32:51;17.37;;;10.50;;
27013;SDS011;14556;52.222;4.510;2022-10-31T07:35:22;16.87;;;9.03;;
27013;SDS011;14556;52.222;4.510;2022-10-31T07:37:49;20.53;;;10.37;;
27013;SDS011;14556;52.222;4.510;2022-10-31T07:40:16;24.00;;;11.97;;
27013;SDS011;14556;52.222;4.510;2022-10-31T07:42:47;18.23;;;10.50;;
27013;SDS011;14556;52.222;4.510;2022-10-31T07:45:17;18.67;;;11.37;;
27013;SDS011;14556;52.222;4.510;2022-10-31T07:47:46;22.63;;;11.97;;
27013;SDS011;14556;52.222;4.510;2022-10-31T07:50:16;19.00;;;11.60;;
27013;SDS011;14556;52.222;4.510;2022-10-31T07:52:45;23.50;;;13.83;;
27013;SDS011;14556;52.222;4.510;2022-10-31T07:55:12;17.83;;;12.50;;
27013;SDS011;14556;52.222;4.510;2022-10-31T07:57:38;21.83;;;12.67;;
27013;SDS011;14556;52.222;4.510;2022-10-31T08:00:06;20.60;;;13.27;;
27013;SDS011;14556;52.222;4.510;2022-10-31T08:02:34;27.87;;;14.27;;
27013;SDS011;14556;52.222;4.510;2022-10-31T08:05:01;25.60;;;14.83;;
27013;SDS011;14556;52.222;4.510;2022-10-31T08:07:28;24.97;;;12.57;;
27013;SDS011;14556;52.222;4.510;2022-10-31T08:09:55;30.60;;;14.90;;
27013;SDS011;14556;52.222;4.510;2022-10-31T08:12:22;30.77;;;16.17;;
27013;SDS011;14556;52.222;4.510;2022-10-31T08:14:48;30.53;;;16.10;;
27013;SDS011;14556;52.222;4.510;2022-10-31T08:17:16;27.37;;;16.27;;
27013;SDS011;14556;52.222;4.510;2022-10-31T08:19:42;26.27;;;14.53;;
27013;SDS011;14556;52.222;4.510;2022-10-31T08:22:08;30.40;;;15.33;;
27013;SDS011;14556;52.222;4.510;2022-10-31T08:24:35;30.70;;;16.67;;
27013;SDS011;14556;52.222;4.510;2022-10-31T08:27:01;31.37;;;16.23;;
27013;SDS011;14556;52.222;4.510;2022-10-31T08:29:28;29.63;;;15.57;;
27013;SDS011;14556;52.222;4.510;2022-10-31T08:31:54;34.27;;;16.63;;
27013;SDS011;14556;52.222;4.510;2022-10-31T08:34:20;40.90;;;17.70;;
27013;SDS011;14556;52.222;4.510;2022-10-31T08:36:47;41.33;;;16.73;;
27013;SDS011;14556;52.222;4.510;2022-10-31T08:39:13;39.00;;;16.53;;
27013;SDS011;14556;52.222;4.510;2022-10-31T08:41:40;35.60;;;16.67;;
27013;SDS011;14556;52.222;4.510;2022-10-31T08:44:06;33.83;;;16.23;;
27013;SDS011;14556;52.222;4.510;2022-10-31T08:46:33;36.27;;;17.17;;
27013;SDS011;14556;52.222;4.510;2022-10-31T08:49:00;36.43;;;17.70;;
27013;SDS011;14556;52.222;4.510;2022-10-31T08:51:26;32.53;;;16.63;;
27013;SDS011;14556;52.222;4.510;2022-10-31T08:53:53;41.83;;;18.70;;
27013;SDS011;14556;52.222;4.510;2022-10-31T08:56:19;44.27;;;17.70;;
27013;SDS011;14556;52.222;4.510;2022-10-31T08:58:46;41.17;;;16.50;;
27013;SDS011;14556;52.222;4.510;2022-10-31T09:01:12;35.07;;;16.70;;
27013;SDS011;14556;52.222;4.510;2022-10-31T09:03:39;37.80;;;18.17;;
27013;SDS011;14556;52.222;4.510;2022-10-31T09:06:05;42.23;;;18.70;;
27013;SDS011;14556;52.222;4.510;2022-10-31T09:08:35;41.37;;;19.03;;
27013;SDS011;14556;52.222;4.510;2022-10-31T09:11:02;36.57;;;17.07;;
27013;SDS011;14556;52.222;4.510;2022-10-31T09:13:29;44.20;;;19.53;;
27013;SDS011;14556;52.222;4.510;2022-10-31T09:15:56;35.87;;;18.20;;
27013;SDS011;14556;52.222;4.510;2022-10-31T09:18:26;35.97;;;17.27;;
27013;SDS011;14556;52.222;4.510;2022-10-31T09:20:58;38.67;;;17.33;;
27013;SDS011;14556;52.222;4.510;2022-10-31T09:23:26;33.60;;;18.33;;
27013;SDS011;14556;52.222;4.510;2022-10-31T09:25:52;36.07;;;18.00;;
27013;SDS011;14556;52.222;4.510;2022-10-31T09:28:20;31.97;;;19.13;;
27013;SDS011;14556;52.222;4.510;2022-10-31T09:30:48;34.47;;;18.03;;
27013;SDS011;14556;52.222;4.510;2022-10-31T09:33:18;35.40;;;17.83;;
27013;SDS011;14556;52.222;4.510;2022-10-31T09:35:46;37.47;;;17.67;;
27013;SDS011;14556;52.222;4.510;2022-10-31T09:38:14;37.60;;;19.37;;
27013;SDS011;14556;52.222;4.510;2022-10-31T09:41:01;43.77;;;20.47;;
27013;SDS011;14556;52.222;4.510;2022-10-31T09:46:49;46.10;;;19.33;;
27013;SDS011;14556;52.222;4.510;2022-10-31T09:49:34;42.80;;;19.90;;
27013;SDS011;14556;52.222;4.510;2022-10-31T09:52:29;54.17;;;22.70;;
27013;SDS011;14556;52.222;4.510;2022-10-31T09:55:00;49.57;;;23.00;;
27013;SDS011;14556;52.222;4.510;2022-10-31T09:57:43;51.73;;;22.97;;
27013;SDS011;14556;52.222;4.510;2022-10-31T10:00:18;45.93;;;21.93;;
27013;SDS011;14556;52.222;4.510;2022-10-31T10:05:40;45.43;;;20.63;;
27013;SDS011;14556;52.222;4.510;2022-10-31T10:08:27;50.13;;;22.47;;
27013;SDS011;14556;52.222;4.510;2022-10-31T10:13:41;48.07;;;23.13;;
27013;SDS011;14556;52.222;4.510;2022-10-31T10:16:23;66.83;;;24.67;;
27013;SDS011;14556;52.222;4.510;2022-10-31T10:22:05;68.23;;;25.47;;
27013;SDS011;14556;52.222;4.510;2022-10-31T10:24:51;67.60;;;24.10;;
27013;SDS011;14556;52.222;4.510;2022-10-31T10:30:11;57.77;;;22.57;;
27013;SDS011;14556;52.222;4.510;2022-10-31T10:32:45;70.53;;;25.43;;
27013;SDS011;14556;52.222;4.510;2022-10-31T10:35:22;62.17;;;24.03;;
27013;SDS011;14556;52.222;4.510;2022-10-31T10:37:59;59.47;;;24.17;;
27013;SDS011;14556;52.222;4.510;2022-10-31T10:40:33;60.80;;;23.07;;
27013;SDS011;14556;52.222;4.510;2022-10-31T10:45:51;60.83;;;24.10;;
27013;SDS011;14556;52.222;4.510;2022-10-31T10:48:45;58.53;;;22.53;;
27013;SDS011;14556;52.222;4.510;2022-10-31T10:51:20;59.97;;;22.80;;
27013;SDS011;14556;52.222;4.510;2022-10-31T10:57:07;47.87;;;21.53;;
27013;SDS011;14556;52.222;4.510;2022-10-31T10:59:55;49.73;;;20.97;;
27013;SDS011;14556;52.222;4.510;2022-10-31T11:02:26;42.97;;;19.87;;
27013;SDS011;14556;52.222;4.510;2022-10-31T11:04:57;33.63;;;18.43;;
27013;SDS011;14556;52.222;4.510;2022-10-31T11:07:36;32.77;;;17.60;;
27013;SDS011;14556;52.222;4.510;2022-10-31T11:10:05;29.93;;;15.03;;
27013;SDS011;14556;52.222;4.510;2022-10-31T11:12:40;27.10;;;14.87;;
27013;SDS011;14556;52.222;4.510;2022-10-31T11:15:16;27.40;;;14.47;;
27013;SDS011;14556;52.222;4.510;2022-10-31T11:17:47;22.93;;;13.13;;
27013;SDS011;14556;52.222;4.510;2022-10-31T11:22:45;27.20;;;13.97;;
27013;SDS011;14556;52.222;4.510;2022-10-31T11:30:42;27.23;;;13.90;;
27013;SDS011;14556;52.222;4.510;2022-10-31T11:33:14;34.50;;;16.50;;
27013;SDS011;14556;52.222;4.510;2022-10-31T11:35:45;33.57;;;17.17;;
27013;SDS011;14556;52.222;4.510;2022-10-31T11:38:15;33.00;;;17.27;;
27013;SDS011;14556;52.222;4.510;2022-10-31T11:41:01;36.50;;;17.57;;
27013;SDS011;14556;52.222;4.510;2022-10-31T11:43:35;31.90;;;18.87;;
27013;SDS011;14556;52.222;4.510;2022-10-31T11:46:11;31.50;;;17.23;;
27013;SDS011;14556;52.222;4.510;2022-10-31T11:48:48;36.23;;;18.90;;
27013;SDS011;14556;52.222;4.510;2022-10-31T11:51:20;31.03;;;16.90;;
27013;SDS011;14556;52.222;4.510;2022-10-31T11:53:51;34.17;;;17.63;;
27013;SDS011;14556;52.222;4.510;2022-10-31T11:56:25;30.10;;;15.87;;
27013;SDS011;14556;52.222;4.510;2022-10-31T11:58:55;27.53;;;14.17;;
27013;SDS011;14556;52.222;4.510;2022-10-31T12:01:28;28.50;;;15.53;;
27013;SDS011;14556;52.222;4.510;2022-10-31T12:04:11;25.43;;;14.13;;
27013;SDS011;14556;52.222;4.510;2022-10-31T12:06:39;25.33;;;13.93;;
27013;SDS011;14556;52.222;4.510;2022-10-31T12:09:16;28.77;;;14.83;;
27013;SDS011;14556;52.222;4.510;2022-10-31T12:14:45;28.53;;;14.03;;
27013;SDS011;14556;52.222;4.510;2022-10-31T12:17:49;32.23;;;14.03;;
27013;SDS011;14556;52.222;4.510;2022-10-31T12:22:55;27.70;;;13.00;;
27013;SDS011;14556;52.222;4.510;2022-10-31T12:28:30;26.97;;;14.30;;
27013;SDS011;14556;52.222;4.510;2022-10-31T12:39:47;25.20;;;13.07;;
27013;SDS011;14556;52.222;4.510;2022-10-31T12:42:35;27.40;;;14.23;;
27013;SDS011;14556;52.222;4.510;2022-10-31T12:51:03;29.63;;;16.03;;
27013;SDS011;14556;52.222;4.510;2022-10-31T12:56:36;28.60;;;15.50;;
27013;SDS011;14556;52.222;4.510;2022-10-31T12:59:36;29.33;;;16.17;;
27013;SDS011;14556;52.222;4.510;2022-10-31T13:04:55;33.23;;;17.97;;
27013;SDS011;14556;52.222;4.510;2022-10-31T13:07:36;33.37;;;16.47;;
27013;SDS011;14556;52.222;4.510;2022-10-31T13:10:16;33.00;;;16.13;;
27013;SDS011;14556;52.222;4.510;2022-10-31T13:12:46;33.63;;;18.43;;
27013;SDS011;14556;52.222;4.510;2022-10-31T13:15:18;29.37;;;16.13;;
27013;SDS011;14556;52.222;4.510;2022-10-31T13:17:48;33.47;;;16.70;;
27013;SDS011;14556;52.222;4.510;2022-10-31T13:22:50;36.53;;;19.10;;
27013;SDS011;14556;52.222;4.510;2022-10-31T13:25:23;33.37;;;17.90;;
27013;SDS011;14556;52.222;4.510;2022-10-31T13:28:01;38.63;;;18.43;;
27013;SDS011;14556;52.222;4.510;2022-10-31T13:30:32;39.57;;;18.47;;
27013;SDS011;14556;52.222;4.510;2022-10-31T13:33:04;39.50;;;20.33;;
27013;SDS011;14556;52.222;4.510;2022-10-31T13:35:43;35.53;;;18.23;;
27013;SDS011;14556;52.222;4.510;2022-10-31T13:38:21;32.80;;;18.40;;
27013;SDS011;14556;52.222;4.510;2022-10-31T13:40:55;38.67;;;18.50;;
27013;SDS011;14556;52.222;4.510;2022-10-31T13:43:31;41.40;;;20.13;;
27013;SDS011;14556;52.222;4.510;2022-10-31T13:46:21;43.57;;;21.60;;
27013;SDS011;14556;52.222;4.510;2022-10-31T13:49:41;37.67;;;18.83;;
27013;SDS011;14556;52.222;4.510;2022-10-31T13:54:36;37.47;;;19.83;;
27013;SDS011;14556;52.222;4.510;2022-10-31T13:59:47;42.20;;;19.83;;
27013;SDS011;14556;52.222;4.510;2022-10-31T14:02:18;44.47;;;21.53;;
27013;SDS011;14556;52.222;4.510;2022-10-31T14:04:52;38.37;;;20.50;;
27013;SDS011;14556;52.222;4.510;2022-10-31T14:07:22;42.73;;;20.73;;
27013;SDS011;14556;52.222;4.510;2022-10-31T14:09:55;41.27;;;21.50;;
27013;SDS011;14556;52.222;4.510;2022-10-31T14:17:51;43.43;;;21.13;;
27013;SDS011;14556;52.222;4.510;2022-10-31T14:20:34;45.87;;;21.00;;
27013;SDS011;14556;52.222;4.510;2022-10-31T14:23:11;44.53;;;21.90;;
27013;SDS011;14556;52.222;4.510;2022-10-31T14:25:39;48.47;;;20.83;;
27013;SDS011;14556;52.222;4.510;2022-10-31T14:28:21;45.37;;;20.67;;
27013;SDS011;14556;52.222;4.510;2022-10-31T14:30:58;39.13;;;21.97;;
27013;SDS011;14556;52.222;4.510;2022-10-31T14:33:29;44.00;;;21.90;;
27013;SDS011;14556;52.222;4.510;2022-10-31T14:38:53;42.83;;;21.63;;
27013;SDS011;14556;52.222;4.510;2022-10-31T14:41:47;42.47;;;20.77;;
27013;SDS011;14556;52.222;4.510;2022-10-31T14:52:37;40.03;;;19.77;;
27013;SDS011;14556;52.222;4.510;2022-10-31T14:55:05;45.33;;;21.97;;
27013;SDS011;14556;52.222;4.510;2022-10-31T14:57:37;39.97;;;20.10;;
27013;SDS011;14556;52.222;4.510;2022-10-31T15:00:12;48.23;;;21.90;;
27013;SDS011;14556;52.222;4.510;2022-10-31T15:02:58;44.50;;;21.93;;
27013;SDS011;14556;52.222;4.510;2022-10-31T15:05:32;47.57;;;21.47;;
27013;SDS011;14556;52.222;4.510;2022-10-31T15:08:13;49.20;;;20.17;;
27013;SDS011;14556;52.222;4.510;2022-10-31T15:10:52;47.83;;;21.00;;
27013;SDS011;14556;52.222;4.510;2022-10-31T15:13:20;41.67;;;20.23;;
27013;SDS011;14556;52.222;4.510;2022-10-31T15:15:49;38.97;;;20.23;;
27013;SDS011;14556;52.222;4.510;2022-10-31T15:18:21;42.87;;;18.87;;
27013;SDS011;14556;52.222;4.510;2022-10-31T15:20:50;43.17;;;18.80;;
27013;SDS011;14556;52.222;4.510;2022-10-31T15:23:21;44.70;;;19.90;;
27013;SDS011;14556;52.222;4.510;2022-10-31T15:25:50;40.73;;;18.17;;
27013;SDS011;14556;52.222;4.510;2022-10-31T15:28:27;38.47;;;18.77;;
27013;SDS011;14556;52.222;4.510;2022-10-31T15:30:55;46.10;;;19.30;;
27013;SDS011;14556;52.222;4.510;2022-10-31T15:33:23;39.87;;;19.37;;
27013;SDS011;14556;52.222;4.510;2022-10-31T15:36:03;41.57;;;19.10;;
27013;SDS011;14556;52.222;4.510;2022-10-31T15:38:29;43.53;;;19.70;;
27013;SDS011;14556;52.222;4.510;2022-10-31T15:40:57;47.80;;;20.47;;
27013;SDS011;14556;52.222;4.510;2022-10-31T15:43:33;42.70;;;19.77;;
27013;SDS011;14556;52.222;4.510;2022-10-31T15:46:02;40.53;;;19.17;;
27013;SDS011;14556;52.222;4.510;2022-10-31T15:48:30;44.63;;;20.17;;
27013;SDS011;14556;52.222;4.510;2022-10-31T15:51:01;42.20;;;21.00;;
27013;SDS011;14556;52.222;4.510;2022-10-31T15:56:10;44.53;;;19.87;;
27013;SDS011;14556;52.222;4.510;2022-10-31T15:58:41;40.10;;;19.13;;
27013;SDS011;14556;52.222;4.510;2022-10-31T16:01:32;48.63;;;21.10;;
27013;SDS011;14556;52.222;4.510;2022-10-31T16:06:28;43.90;;;19.33;;
27013;SDS011;14556;52.222;4.510;2022-10-31T16:08:54;42.97;;;20.47;;
27013;SDS011;14556;52.222;4.510;2022-10-31T16:11:54;37.90;;;18.13;;
27013;SDS011;14556;52.222;4.510;2022-10-31T16:14:17;41.23;;;19.13;;
27013;SDS011;14556;52.222;4.510;2022-10-31T16:16:55;44.00;;;20.67;;
27013;SDS011;14556;52.222;4.510;2022-10-31T16:19:25;41.70;;;18.90;;
27013;SDS011;14556;52.222;4.510;2022-10-31T16:22:07;45.90;;;18.43;;
27013;SDS011;14556;52.222;4.510;2022-10-31T16:24:55;42.53;;;20.73;;
27013;SDS011;14556;52.222;4.510;2022-10-31T16:27:28;42.80;;;20.57;;
27013;SDS011;14556;52.222;4.510;2022-10-31T16:29:58;43.67;;;17.43;;
27013;SDS011;14556;52.222;4.510;2022-10-31T16:32:34;40.87;;;18.70;;
27013;SDS011;14556;52.222;4.510;2022-10-31T16:37:38;42.67;;;19.27;;
27013;SDS011;14556;52.222;4.510;2022-10-31T16:40:05;36.03;;;18.17;;
27013;SDS011;14556;52.222;4.510;2022-10-31T16:42:32;37.37;;;17.77;;